Time;durP1;ratioP1;P1;durP2;ratioP2;P2;SDS_P1;SDS_P2;PMS_P1;PMS_P2;Temp;Humidity;BMP_temperature;BMP_pressure;BME280_temperature;BME280_humidity;BME280_pressure;Samples;Min_cycle;Max_cycle;Signal;HPM_P1;HPM_P2
2023/08/31 00:00:53;;;;;;;;;;;;;;;28.58;55.96;100478.47;5027875;28;20625;-87
2023/08/31 00:03:19;;;;;;;;;;;;;;;28.58;55.77;100478.47;5050566;28;19917;-88
2023/08/31 00:05:44;;;;;;;;;;;;;;;28.57;55.80;100482.94;5048766;28;19921;-88
2023/08/31 00:08:11;;;;;;;;;;;;;;;28.57;55.82;100482.06;5027725;28;19924;-88
2023/08/31 00:10:36;;;;;;;;;;;;;;;28.58;55.91;100483.84;5012382;28;19928;-88
2023/08/31 00:13:02;;;;;;;;;;;;;;;28.58;55.75;100478.47;5051382;28;20007;-88
2023/08/31 00:15:28;;;;;;;;;;;;;;;28.58;55.77;100475.78;5045736;28;20032;-88
2023/08/31 00:17:54;;;;;;;;;;;;;;;28.58;55.75;100486.53;5012780;28;20457;-88
2023/08/31 00:20:19;;;;;;;;;;;;;;;28.57;55.68;100484.75;5044354;28;20498;-90
2023/08/31 00:22:45;;;;;;;;;;;;;;;28.56;55.60;100485.69;5027188;28;19927;-88
2023/08/31 00:25:11;;;;;;;;;;;;;;;28.55;55.56;100487.47;5044526;28;19914;-90
2023/08/31 00:27:37;;;;;;;;;;;;;;;28.55;55.71;100478.53;5048004;28;19940;-90
2023/08/31 00:30:06;;;;;;;;;;;;;;;28.55;55.87;100478.53;5036410;28;19925;-90
2023/08/31 00:32:33;;;;;;;;;;;;;;;28.55;55.71;100470.47;5038836;28;19925;-91
2023/08/31 00:35:03;;;;;;;;;;;;;;;28.57;55.44;100474.00;5031917;28;19921;-90
2023/08/31 00:37:31;;;;;;;;;;;;;;;28.55;55.58;100475.84;5044028;28;19956;-91
2023/08/31 00:39:56;;;;;;;;;;;;;;;28.54;55.48;100474.09;5032357;28;19924;-90
2023/08/31 00:42:22;;;;;;;;;;;;;;;28.54;55.36;100468.72;5037096;28;19918;-89
2023/08/31 00:44:47;;;;;;;;;;;;;;;28.54;55.43;100466.91;5037941;28;19921;-90
2023/08/31 00:47:13;;;;;;;;;;;;;;;28.53;55.42;100467.84;5054005;28;19916;-89
2023/08/31 00:49:39;;;;;;;;;;;;;;;28.54;55.31;100474.97;5072470;28;19927;-90
2023/08/31 00:52:04;;;;;;;;;;;;;;;28.54;55.47;100466.91;5038873;28;19921;-90
2023/08/31 00:54:31;;;;;;;;;;;;;;;28.53;55.49;100475.00;5071258;28;19913;-90
2023/08/31 00:56:57;;;;;;;;;;;;;;;28.54;55.32;100472.28;5054969;28;19978;-89
2023/08/31 00:59:24;;;;;;;;;;;;;;;28.52;55.37;100479.50;5038654;28;19921;-91
2023/08/31 01:01:51;;;;;;;;;;;;;;;28.52;55.18;100479.50;5038580;28;19991;-91
2023/08/31 01:04:22;;;;;;;;;;;;;;;28.52;55.15;100476.81;5059274;28;19917;-90
2023/08/31 01:06:52;;;;;;;;;;;;;;;28.52;55.15;100482.19;5076119;28;19924;-92
2023/08/31 01:09:28;;;;;;;;;;;;;;;28.53;55.23;100491.13;5078310;28;20390;-92
2023/08/31 01:11:58;;;;;;;;;;;;;;;28.52;55.24;100492.94;5043701;28;19920;-90
2023/08/31 01:14:24;;;;;;;;;;;;;;;28.50;55.32;100494.78;5037501;28;19913;-90
2023/08/31 01:16:51;;;;;;;;;;;;;;;28.51;55.48;100501.94;5062440;28;20381;-90
2023/08/31 01:19:22;;;;;;;;;;;;;;;28.51;55.32;100499.25;5053900;28;19912;-90
2023/08/31 01:21:49;;;;;;;;;;;;;;;28.52;55.29;100508.19;5078054;28;19917;-91
2023/08/31 01:24:14;;;;;;;;;;;;;;;28.51;55.32;100507.31;5047953;28;20455;-90
2023/08/31 01:26:40;;;;;;;;;;;;;;;28.51;55.14;100511.78;5059614;28;19921;-89
2023/08/31 01:29:05;;;;;;;;;;;;;;;28.51;55.13;100517.16;5037666;28;19919;-90
2023/08/31 01:31:31;;;;;;;;;;;;;;;28.52;55.23;100521.63;5054773;28;19939;-89
2023/08/31 01:33:59;;;;;;;;;;;;;;;28.50;55.32;100524.31;5036964;28;20317;-90
2023/08/31 01:36:28;;;;;;;;;;;;;;;28.51;55.30;100527.88;5044330;28;19927;-90
2023/08/31 01:41:44;;;;;;;;;;;;;;;28.50;54.93;100526.13;5060799;28;19978;-90
2023/08/31 01:44:14;;;;;;;;;;;;;;;28.50;54.84;100528.81;5037458;28;20063;-90
2023/08/31 01:46:40;;;;;;;;;;;;;;;28.48;55.19;100526.13;5037044;28;19920;-89
2023/08/31 01:49:05;;;;;;;;;;;;;;;28.49;54.97;100529.72;5053841;28;19919;-89
2023/08/31 01:51:32;;;;;;;;;;;;;;;28.47;55.07;100527.06;5054058;28;19917;-90
2023/08/31 01:53:58;;;;;;;;;;;;;;;28.47;55.13;100529.75;5058272;28;19967;-87
2023/08/31 01:56:24;;;;;;;;;;;;;;;28.46;55.28;100527.97;5036782;28;19927;-89
2023/08/31 01:58:49;;;;;;;;;;;;;;;28.47;55.30;100532.44;5036933;28;19916;-90
2023/08/31 02:01:15;;;;;;;;;;;;;;;28.45;55.42;100531.59;5048790;28;20439;-90
2023/08/31 02:03:40;;;;;;;;;;;;;;;28.46;55.45;100538.72;5054153;28;19913;-89
2023/08/31 02:06:07;;;;;;;;;;;;;;;28.42;55.00;100529.84;5053379;28;19975;-89
2023/08/31 02:08:34;;;;;;;;;;;;;;;28.45;55.20;100523.53;5056064;28;19923;-90
2023/08/31 02:11:00;;;;;;;;;;;;;;;28.42;55.43;100534.34;5055569;28;19917;-90
2023/08/31 02:13:29;;;;;;;;;;;;;;;28.43;55.24;100533.44;5045180;28;19917;-88
2023/08/31 02:15:57;;;;;;;;;;;;;;;28.42;55.24;100526.28;5037026;28;19928;-89
2023/08/31 02:18:23;;;;;;;;;;;;;;;28.42;55.19;100529.84;5036917;28;19956;-89
2023/08/31 02:20:52;;;;;;;;;;;;;;;28.42;55.19;100537.91;5048955;28;20378;-90
2023/08/31 02:23:17;;;;;;;;;;;;;;;28.41;55.29;100543.31;5053233;28;19955;-89
2023/08/31 02:25:42;;;;;;;;;;;;;;;28.38;55.74;100548.75;5057939;28;19970;-90
2023/08/31 02:28:08;;;;;;;;;;;;;;;28.40;55.44;100560.34;5045699;28;20382;-90
2023/08/31 02:30:33;;;;;;;;;;;;;;;28.39;55.57;100554.09;5047320;28;20101;-90
2023/08/31 02:32:59;;;;;;;;;;;;;;;28.37;55.57;100569.38;5036424;28;20352;-89
2023/08/31 02:35:24;;;;;;;;;;;;;;;28.35;55.58;100555.09;5036097;28;20389;-89
2023/08/31 02:37:50;;;;;;;;;;;;;;;28.37;55.12;100555.06;5053134;28;20348;-89
2023/08/31 02:40:16;;;;;;;;;;;;;;;28.38;55.13;100565.75;5035880;28;20305;-89
2023/08/31 02:42:43;;;;;;;;;;;;;;;28.36;55.13;100554.19;5044089;28;19924;-90
2023/08/31 02:45:08;;;;;;;;;;;;;;;28.36;55.26;100553.28;5041133;28;19921;-90
2023/08/31 02:47:37;;;;;;;;;;;;;;;28.35;55.31;100547.03;5089747;28;19947;-89
2023/08/31 02:50:06;;;;;;;;;;;;;;;28.34;55.16;100549.75;5064552;28;19917;-91
2023/08/31 02:52:32;;;;;;;;;;;;;;;28.33;55.19;100548.88;5082121;28;19920;-90
2023/08/31 02:55:02;;;;;;;;;;;;;;;28.34;55.26;100560.47;5079478;28;19913;-90
2023/08/31 02:57:27;;;;;;;;;;;;;;;28.34;55.21;100564.06;5057030;28;20387;-88
2023/08/31 02:59:53;;;;;;;;;;;;;;;28.31;55.41;100560.56;5071381;28;19923;-91
2023/08/31 03:02:22;;;;;;;;;;;;;;;28.33;55.41;100566.78;5029101;28;19940;-91
2023/08/31 03:04:47;;;;;;;;;;;;;;;28.30;55.39;100567.75;5070826;28;19987;-92
2023/08/31 03:07:15;;;;;;;;;;;;;;;28.30;55.57;100565.06;5074404;28;20382;-90
2023/08/31 03:09:42;;;;;;;;;;;;;;;28.31;55.54;100568.63;5060908;28;19917;-90
2023/08/31 03:12:07;;;;;;;;;;;;;;;28.31;55.39;100572.19;5072871;28;19923;-89
2023/08/31 03:14:33;;;;;;;;;;;;;;;28.29;55.33;100570.47;5071709;28;19913;-92
2023/08/31 03:16:58;;;;;;;;;;;;;;;28.30;55.55;100572.22;5076387;28;19917;-89
2023/08/31 03:19:24;;;;;;;;;;;;;;;28.28;55.41;100576.72;5070423;28;20007;-89
2023/08/31 03:21:54;;;;;;;;;;;;;;;28.27;55.50;100578.53;5070879;28;19917;-91
2023/08/31 03:24:19;;;;;;;;;;;;;;;28.28;55.39;100576.72;5058597;28;19917;-92
2023/08/31 03:26:48;;;;;;;;;;;;;;;28.26;55.44;100582.16;5059716;28;19921;-92
2023/08/31 03:29:20;;;;;;;;;;;;;;;28.27;55.40;100583.03;5063831;28;19917;-90
2023/08/31 03:32:03;;;;;;;;;;;;;;;28.26;55.21;100576.78;5067563;28;19917;-90
2023/08/31 03:34:36;;;;;;;;;;;;;;;28.26;55.48;100587.53;5068319;28;20420;-90
2023/08/31 03:37:01;;;;;;;;;;;;;;;28.24;55.35;100592.06;5047643;28;19917;-91
2023/08/31 03:39:27;;;;;;;;;;;;;;;28.23;55.52;100588.47;5075334;28;19924;-90
2023/08/31 03:41:52;;;;;;;;;;;;;;;28.23;55.63;100590.25;5077739;28;19925;-90
2023/08/31 03:44:20;;;;;;;;;;;;;;;28.24;55.50;100592.06;5062889;28;20309;-91
2023/08/31 03:46:46;;;;;;;;;;;;;;;28.22;55.33;100600.13;5059054;28;19929;-89
2023/08/31 03:49:12;;;;;;;;;;;;;;;28.22;55.40;100601.94;5061824;28;20016;-91
2023/08/31 03:51:37;;;;;;;;;;;;;;;28.21;55.25;100594.78;5031178;28;19948;-90
2023/08/31 03:54:04;;;;;;;;;;;;;;;28.20;55.31;100604.66;5039270;28;19917;-88
2023/08/31 03:56:29;;;;;;;;;;;;;;;28.20;55.42;100599.28;5062500;28;19917;-89
2023/08/31 03:58:55;;;;;;;;;;;;;;;28.18;55.30;100606.47;5069774;28;19917;-90
2023/08/31 04:01:20;;;;;;;;;;;;;;;28.21;55.27;100605.53;5068895;28;20318;-90
2023/08/31 04:03:47;;;;;;;;;;;;;;;28.20;55.42;100611.81;5047897;28;19917;-90
2023/08/31 04:06:12;;;;;;;;;;;;;;;28.18;55.64;100600.22;5028853;28;19924;-89
2023/08/31 04:08:37;;;;;;;;;;;;;;;28.18;55.57;100614.53;5032161;28;19913;-89
2023/08/31 04:11:03;;;;;;;;;;;;;;;28.16;55.55;100610.13;5032551;28;20333;-89
2023/08/31 04:13:28;;;;;;;;;;;;;;;28.18;55.43;100611.84;5066124;28;20303;-89
2023/08/31 04:15:54;;;;;;;;;;;;;;;28.16;55.40;100613.69;5073522;28;20038;-89
2023/08/31 04:18:20;;;;;;;;;;;;;;;28.17;55.49;100617.25;5038937;28;20007;-89
2023/08/31 04:20:53;;;;;;;;;;;;;;;28.15;55.67;100609.25;5067749;28;19975;-91
2023/08/31 04:23:22;;;;;;;;;;;;;;;28.16;55.63;100616.38;5064869;28;20408;-90
2023/08/31 04:25:51;;;;;;;;;;;;;;;28.15;55.33;100619.97;5071650;28;19920;-90
2023/08/31 04:28:17;;;;;;;;;;;;;;;28.14;55.51;100622.69;5064250;28;19921;-91
2023/08/31 04:30:44;;;;;;;;;;;;;;;28.15;55.53;100616.41;5064286;28;19935;-91
2023/08/31 04:33:11;;;;;;;;;;;;;;;28.14;55.24;100625.38;5054968;28;19916;-91
2023/08/31 04:35:38;;;;;;;;;;;;;;;28.15;55.38;100632.50;5045941;28;19917;-91
2023/08/31 04:38:04;;;;;;;;;;;;;;;28.12;55.42;100637.94;5037597;28;19913;-90
2023/08/31 04:40:30;;;;;;;;;;;;;;;28.15;55.28;100636.09;5048100;28;19964;-91
2023/08/31 04:42:55;;;;;;;;;;;;;;;28.12;55.33;100636.16;5077652;28;20349;-91
2023/08/31 04:45:21;;;;;;;;;;;;;;;28.13;55.25;100634.34;5070179;28;19921;-91
2023/08/31 04:47:46;;;;;;;;;;;;;;;28.13;55.31;100637.03;5067758;28;19921;-91
2023/08/31 04:50:14;;;;;;;;;;;;;;;28.12;55.42;100635.25;5072997;28;19970;-89
2023/08/31 04:52:39;;;;;;;;;;;;;;;28.10;55.44;100639.78;5051847;28;19912;-87
2023/08/31 04:55:08;;;;;;;;;;;;;;;28.12;55.25;100643.31;5045014;28;20382;-88
2023/08/31 04:57:34;;;;;;;;;;;;;;;28.11;55.22;100639.75;5063589;28;19920;-86
2023/08/31 04:59:59;;;;;;;;;;;;;;;28.11;55.44;100646.91;5033919;28;19917;-85
2023/08/31 05:02:25;;;;;;;;;;;;;;;28.10;55.42;100640.66;5047153;28;19917;-85
2023/08/31 05:04:50;;;;;;;;;;;;;;;28.10;55.36;100650.53;5048980;28;20440;-87
2023/08/31 05:07:16;;;;;;;;;;;;;;;28.09;55.33;100649.66;5037934;28;19917;-88
2023/08/31 05:09:42;;;;;;;;;;;;;;;28.09;54.99;100643.38;5074077;28;19921;-89
2023/08/31 05:12:08;;;;;;;;;;;;;;;28.11;55.33;100638.84;5039912;28;20355;-86
2023/08/31 05:14:37;;;;;;;;;;;;;;;28.10;55.22;100639.78;5069736;28;19977;-87
2023/08/31 05:17:05;;;;;;;;;;;;;;;27.83;57.54;100639.38;5066888;28;19913;-86
2023/08/31 05:19:30;;;;;;;;;;;;;;;27.76;57.68;100643.97;5067583;28;19913;-86
2023/08/31 05:21:56;;;;;;;;;;;;;;;27.65;58.72;100639.75;5035564;28;19917;-88
2023/08/31 05:24:22;;;;;;;;;;;;;;;27.64;57.99;100632.59;5050732;28;20386;-89
2023/08/31 05:26:47;;;;;;;;;;;;;;;27.80;58.25;100634.94;5077421;28;19944;-88
2023/08/31 05:29:12;;;;;;;;;;;;;;;27.88;57.74;100626.78;5078145;28;19970;-90
2023/08/31 05:31:38;;;;;;;;;;;;;;;27.92;57.35;100628.50;5044728;28;19917;-89
2023/08/31 05:34:04;;;;;;;;;;;;;;;27.92;57.23;100628.50;5061807;28;19917;-92
2023/08/31 05:36:30;;;;;;;;;;;;;;;27.92;57.52;100636.56;5068487;28;19917;-88
2023/08/31 05:38:55;;;;;;;;;;;;;;;27.91;57.28;100636.59;5058213;28;19917;-89
2023/08/31 05:41:21;;;;;;;;;;;;;;;27.93;57.17;100640.13;5070376;28;20349;-88
2023/08/31 05:43:47;;;;;;;;;;;;;;;27.93;57.25;100637.44;5068771;28;20310;-89
2023/08/31 05:46:14;;;;;;;;;;;;;;;27.92;57.49;100643.69;5075454;28;19933;-89
2023/08/31 05:48:40;;;;;;;;;;;;;;;27.93;57.47;100649.03;5075570;28;19971;-90
2023/08/31 05:51:05;;;;;;;;;;;;;;;27.93;57.15;100645.50;5079085;28;19917;-89
2023/08/31 05:53:31;;;;;;;;;;;;;;;27.92;57.13;100646.38;5059976;28;19948;-87
2023/08/31 05:56:03;;;;;;;;;;;;;;;27.93;57.12;100649.03;5066950;28;19927;-87
2023/08/31 05:58:33;;;;;;;;;;;;;;;27.96;56.87;100651.69;5051463;28;19917;-88
2023/08/31 06:00:58;;;;;;;;;;;;;;;27.95;56.87;100659.75;5038127;28;20007;-89
2023/08/31 06:03:24;;;;;;;;;;;;;;;27.94;56.79;100672.31;5077330;28;19971;-87
2023/08/31 06:05:50;;;;;;;;;;;;;;;27.92;57.09;100670.53;5030594;28;19931;-88
2023/08/31 06:08:15;;;;;;;;;;;;;;;27.94;57.27;100666.94;5054236;28;20466;-89
2023/08/31 06:10:50;;;;;;;;;;;;;;;27.98;56.90;100679.38;5043229;28;19952;-95
2023/08/31 06:13:18;;;;;;;;;;;;;;;27.96;57.02;100673.16;5071043;28;19929;-93
2023/08/31 06:15:48;;;;;;;;;;;;;;;27.94;57.02;100675.00;5033970;28;20051;-93
2023/08/31 06:18:17;;;;;;;;;;;;;;;27.96;56.84;100673.16;5068503;28;19917;-92
2023/08/31 06:20:49;;;;;;;;;;;;;;;27.97;56.60;100684.78;5056532;28;19920;-92
2023/08/31 06:23:17;;;;;;;;;;;;;;;27.96;56.64;100686.59;5059125;28;19928;-92
2023/08/31 06:25:42;;;;;;;;;;;;;;;27.97;56.59;100690.16;5060058;28;19923;-92
2023/08/31 06:28:11;;;;;;;;;;;;;;;27.95;56.60;100692.84;5069642;28;20019;-94
2023/08/31 06:30:46;;;;;;;;;;;;;;;27.96;56.60;100691.94;5051924;28;19921;-92
2023/08/31 06:33:11;;;;;;;;;;;;;;;27.95;56.71;100698.22;5030557;28;19975;-92
2023/08/31 06:35:37;;;;;;;;;;;;;;;27.96;56.87;100700.00;5057598;28;19912;-91
2023/08/31 06:38:08;;;;;;;;;;;;;;;27.95;56.88;100705.41;5045633;28;20378;-88
2023/08/31 06:40:34;;;;;;;;;;;;;;;27.97;56.60;100704.44;5082036;28;19917;-89
2023/08/31 06:42:59;;;;;;;;;;;;;;;27.99;56.44;100704.41;5044730;28;19966;-89
2023/08/31 06:45:24;;;;;;;;;;;;;;;27.97;56.66;100714.31;5068474;28;20073;-89
2023/08/31 06:47:50;;;;;;;;;;;;;;;27.91;56.43;100725.16;5067721;28;20375;-87
2023/08/31 06:50:16;;;;;;;;;;;;;;;27.98;56.23;100729.47;5071358;28;20555;-89
2023/08/31 06:52:41;;;;;;;;;;;;;;;28.00;55.80;100724.97;5045032;28;20266;-90
2023/08/31 06:55:10;;;;;;;;;;;;;;;28.02;55.54;100724.06;5039643;28;20305;-91
2023/08/31 06:57:37;;;;;;;;;;;;;;;27.99;55.15;100716.03;5034376;28;19920;-91
2023/08/31 07:00:03;;;;;;;;;;;;;;;28.00;55.09;100719.59;5083556;28;19988;-90
2023/08/31 07:02:30;;;;;;;;;;;;;;;27.99;54.87;100729.47;5038732;28;19913;-89
2023/08/31 07:04:57;;;;;;;;;;;;;;;28.00;54.85;100720.50;5065799;28;19944;-88
2023/08/31 07:07:23;;;;;;;;;;;;;;;28.04;54.93;100728.50;5075423;28;20011;-87
2023/08/31 07:09:48;;;;;;;;;;;;;;;28.05;54.76;100725.78;5044293;28;20450;-88
2023/08/31 07:12:14;;;;;;;;;;;;;;;28.06;54.48;100732.91;5054868;28;20063;-87
2023/08/31 07:14:39;;;;;;;;;;;;;;;28.08;54.40;100739.13;5084549;28;20310;-87
2023/08/31 07:17:06;;;;;;;;;;;;;;;28.05;54.44;100730.28;5058471;28;20312;-91
2023/08/31 07:19:31;;;;;;;;;;;;;;;28.06;54.39;100738.28;5079042;28;19917;-92
2023/08/31 07:22:00;;;;;;;;;;;;;;;28.06;54.31;100734.72;5068299;28;20424;-91
2023/08/31 07:24:26;;;;;;;;;;;;;;;28.01;54.09;100742.88;5053976;28;20385;-91
2023/08/31 07:26:53;;;;;;;;;;;;;;;28.00;54.11;100752.72;5060895;28;19917;-92
2023/08/31 07:29:18;;;;;;;;;;;;;;;27.98;53.69;100743.81;5065605;28;20372;-91
2023/08/31 07:31:45;;;;;;;;;;;;;;;27.97;53.85;100741.16;5069535;28;19913;-90
2023/08/31 07:34:15;;;;;;;;;;;;;;;27.99;53.68;100750.06;5081636;28;19912;-93
2023/08/31 07:36:44;;;;;;;;;;;;;;;28.00;53.86;100752.72;5080729;28;19975;-91
2023/08/31 07:39:11;;;;;;;;;;;;;;;28.01;53.58;100749.13;5069414;28;19917;-92
2023/08/31 07:41:40;;;;;;;;;;;;;;;28.00;54.07;100754.50;5059676;28;20000;-91
2023/08/31 07:44:09;;;;;;;;;;;;;;;27.98;53.87;100742.91;5062478;28;19968;-92
2023/08/31 07:46:35;;;;;;;;;;;;;;;28.01;55.92;100743.75;5016722;28;19976;-92
2023/08/31 07:49:20;;;;;;;;;;;;;;;27.97;56.10;100750.06;5016470;28;19917;-92
2023/08/31 07:51:46;;;;;;;;;;;;;;;27.95;55.52;100743.84;5030535;28;20008;-92
2023/08/31 07:54:22;;;;;;;;;;;;;;;27.95;55.09;100734.91;5033677;28;19914;-92
2023/08/31 07:56:49;;;;;;;;;;;;;;;27.96;55.25;100734.91;5025419;28;20434;-92
2023/08/31 07:59:14;;;;;;;;;;;;;;;27.97;54.92;100733.97;4997041;28;20410;-92
2023/08/31 08:01:41;;;;;;;;;;;;;;;28.00;55.04;100735.72;5024320;28;19917;-93
2023/08/31 08:04:06;;;;;;;;;;;;;;;27.99;54.74;100739.31;5029735;28;19940;-93
2023/08/31 08:06:34;;;;;;;;;;;;;;;27.99;54.91;100740.19;5021993;28;19964;-92
2023/08/31 08:09:06;;;;;;;;;;;;;;;28.01;54.57;100740.19;5012753;28;19914;-92
2023/08/31 08:11:31;;;;;;;;;;;;;;;28.01;54.49;100738.38;5040570;28;19920;-92
2023/08/31 08:14:10;;;;;;;;;;;;;;;27.99;54.80;100734.81;5012293;28;19917;-93
2023/08/31 08:16:37;;;;;;;;;;;;;;;27.97;54.50;100733.97;5021384;28;19927;-92
2023/08/31 08:19:06;;;;;;;;;;;;;;;27.97;54.49;100733.97;5015809;28;19917;-92
2023/08/31 08:21:34;;;;;;;;;;;;;;;27.99;54.55;100737.50;5031315;28;19917;-92
2023/08/31 08:24:01;;;;;;;;;;;;;;;28.04;54.66;100744.59;5019587;28;19936;-93
2023/08/31 08:26:26;;;;;;;;;;;;;;;28.01;54.69;100742.88;5021921;28;19918;-91
2023/08/31 08:28:54;;;;;;;;;;;;;;;27.99;54.67;100737.50;5017469;28;19960;-91
2023/08/31 08:31:22;;;;;;;;;;;;;;;28.00;54.96;100744.66;5014182;28;19917;-92
2023/08/31 08:33:54;;;;;;;;;;;;;;;28.00;54.90;100742.00;5031277;28;20405;-93
2023/08/31 08:36:26;;;;;;;;;;;;;;;28.01;54.44;100740.19;5050153;28;20015;-92
2023/08/31 08:38:51;;;;;;;;;;;;;;;27.99;54.63;100742.88;5010502;28;19917;-91
2023/08/31 08:41:19;;;;;;;;;;;;;;;28.01;54.58;100742.88;5047815;28;20386;-90
2023/08/31 08:43:48;;;;;;;;;;;;;;;28.05;54.87;100743.69;5011711;28;19917;-91
2023/08/31 08:46:18;;;;;;;;;;;;;;;28.04;54.55;100744.59;5038195;28;20377;-91
2023/08/31 08:48:44;;;;;;;;;;;;;;;28.04;54.84;100747.28;5068509;28;20167;-92
2023/08/31 08:51:17;;;;;;;;;;;;;;;28.04;54.55;100737.41;5054304;28;20028;-91
2023/08/31 08:53:44;;;;;;;;;;;;;;;28.07;54.48;100741.84;5071647;28;19921;-91
2023/08/31 08:56:11;;;;;;;;;;;;;;;28.08;54.33;100741.81;5063705;28;20306;-91
2023/08/31 08:58:41;;;;;;;;;;;;;;;28.08;54.41;100739.13;5087680;28;19916;-91
2023/08/31 09:01:08;;;;;;;;;;;;;;;28.07;54.30;100736.47;5048196;28;19913;-90
2023/08/31 09:03:36;;;;;;;;;;;;;;;28.07;54.49;100731.09;5069292;28;19926;-91
2023/08/31 09:06:04;;;;;;;;;;;;;;;28.07;54.50;100734.69;5051249;28;20310;-92
2023/08/31 09:08:29;;;;;;;;;;;;;;;28.10;54.34;100737.31;5051690;28;19990;-89
2023/08/31 09:10:55;;;;;;;;;;;;;;;28.11;54.22;100738.19;5040516;28;20386;-90
2023/08/31 09:13:22;;;;;;;;;;;;;;;28.13;54.51;100750.69;5080271;28;20659;-91
2023/08/31 09:15:48;;;;;;;;;;;;;;;28.14;54.11;100754.25;5062221;28;20353;-90
2023/08/31 09:18:14;;;;;;;;;;;;;;;28.12;54.20;100756.97;5073542;28;19920;-91
2023/08/31 09:20:46;;;;;;;;;;;;;;;28.14;54.15;100751.56;5052618;28;20288;-90
2023/08/31 09:23:12;;;;;;;;;;;;;;;28.15;53.87;100753.31;5069919;28;19920;-89
2023/08/31 09:25:49;;;;;;;;;;;;;;;28.13;54.03;100755.16;5067289;28;19913;-89
2023/08/31 09:28:14;;;;;;;;;;;;;;;28.15;53.97;100750.63;5065042;28;20392;-90
2023/08/31 09:30:42;;;;;;;;;;;;;;;28.13;53.73;100753.38;5053895;28;19960;-90
2023/08/31 09:33:20;;;;;;;;;;;;;;;28.13;53.63;100749.78;5041895;28;19913;-90
2023/08/31 09:36:00;;;;;;;;;;;;;;;28.16;53.60;100756.00;5066964;28;19917;-91
2023/08/31 09:38:27;;;;;;;;;;;;;;;28.14;53.75;100747.06;5085084;28;19939;-90
2023/08/31 09:40:55;;;;;;;;;;;;;;;28.16;53.57;100755.13;5039200;28;19917;-91
2023/08/31 09:43:25;;;;;;;;;;;;;;;28.14;53.54;100748.88;5074539;28;19964;-90
2023/08/31 09:45:53;;;;;;;;;;;;;;;28.13;53.46;100758.75;5067246;28;19921;-89
2023/08/31 09:48:19;;;;;;;;;;;;;;;28.16;53.50;100760.47;5067815;28;20382;-90
2023/08/31 09:50:47;;;;;;;;;;;;;;;28.18;53.39;100764.03;5050625;28;19913;-90
2023/08/31 09:53:13;;;;;;;;;;;;;;;28.18;53.30;100762.22;5068718;28;19921;-90
2023/08/31 09:55:41;;;;;;;;;;;;;;;28.16;53.47;100768.53;5067423;28;20059;-88
2023/08/31 09:58:08;;;;;;;;;;;;;;;28.16;53.28;100781.97;5065096;28;19917;-89
2023/08/31 10:00:35;;;;;;;;;;;;;;;28.18;52.96;100774.75;5072270;28;19920;-89
2023/08/31 10:03:02;;;;;;;;;;;;;;;28.16;53.11;100773.91;5035572;28;19913;-88
2023/08/31 10:05:28;;;;;;;;;;;;;;;28.15;53.28;100767.66;5023280;28;19917;-89
2023/08/31 10:07:53;;;;;;;;;;;;;;;28.16;52.99;100769.41;5066213;28;19932;-88
2023/08/31 10:10:22;;;;;;;;;;;;;;;28.17;53.07;100778.34;5073118;28;20349;-88
2023/08/31 10:12:48;;;;;;;;;;;;;;;28.16;53.27;100780.16;5034217;28;20321;-89
2023/08/31 10:15:14;;;;;;;;;;;;;;;28.15;53.10;100767.66;5061187;28;19923;-89
2023/08/31 10:17:42;;;;;;;;;;;;;;;28.17;53.21;100772.97;5057453;28;19999;-87
2023/08/31 10:20:13;;;;;;;;;;;;;;;28.17;52.90;100770.28;5063918;28;19970;-86
2023/08/31 10:22:38;;;;;;;;;;;;;;;28.14;53.14;100779.31;5061277;28;19923;-87
2023/08/31 10:25:05;;;;;;;;;;;;;;;28.16;53.19;100784.66;5056590;28;20011;-87
2023/08/31 10:27:38;;;;;;;;;;;;;;;28.16;53.20;100784.66;5076062;28;19921;-88
2023/08/31 10:30:15;;;;;;;;;;;;;;;28.18;53.05;100783.69;5070948;28;19920;-88
2023/08/31 10:32:40;;;;;;;;;;;;;;;28.19;53.10;100785.50;5071657;28;19966;-90
2023/08/31 10:35:07;;;;;;;;;;;;;;;28.20;52.96;100778.31;5032906;28;19960;-88
2023/08/31 10:37:32;;;;;;;;;;;;;;;28.19;53.22;100777.44;5081252;28;19963;-88
2023/08/31 10:40:08;;;;;;;;;;;;;;;28.18;53.09;100775.66;5054914;28;19952;-88
2023/08/31 10:42:33;;;;;;;;;;;;;;;28.20;53.08;100772.94;5070959;28;19917;-88
2023/08/31 10:45:07;;;;;;;;;;;;;;;28.16;53.63;100788.22;5053969;28;20156;-88
2023/08/31 10:47:36;;;;;;;;;;;;;;;28.17;53.47;100768.53;5039468;28;20011;-88
2023/08/31 10:50:15;;;;;;;;;;;;;;;28.17;53.90;100773.88;5043732;28;19921;-88
2023/08/31 10:52:43;;;;;;;;;;;;;;;28.19;53.40;100779.22;5047445;28;19927;-88
2023/08/31 10:55:08;;;;;;;;;;;;;;;28.20;53.37;100781.88;5050020;28;20382;-87
2023/08/31 10:57:35;;;;;;;;;;;;;;;28.21;53.17;100780.06;5060184;28;19918;-88
2023/08/31 11:00:00;;;;;;;;;;;;;;;28.22;53.05;100785.41;5074878;28;19924;-88
2023/08/31 11:02:28;;;;;;;;;;;;;;;28.21;52.86;100783.66;5048387;28;19916;-90
2023/08/31 11:05:03;;;;;;;;;;;;;;;28.21;53.15;100789.03;5072446;28;20416;-89
2023/08/31 11:07:29;;;;;;;;;;;;;;;28.22;52.96;100784.53;5059489;28;19932;-88
2023/08/31 11:10:16;;;;;;;;;;;;;;;28.22;52.99;100777.34;5035364;28;19917;-88
2023/08/31 11:12:43;;;;;;;;;;;;;;;28.20;53.21;100779.19;5044386;28;19964;-87
2023/08/31 11:15:08;;;;;;;;;;;;;;;28.22;53.08;100776.47;5074385;28;20317;-88
2023/08/31 11:17:36;;;;;;;;;;;;;;;28.26;52.89;100785.34;5053104;28;20447;-89
2023/08/31 11:20:05;;;;;;;;;;;;;;;28.23;53.74;100784.50;5056993;28;20325;-87
2023/08/31 11:22:30;;;;;;;;;;;;;;;28.23;53.07;100771.06;5031465;28;19984;-88
2023/08/31 11:24:56;;;;;;;;;;;;;;;28.21;53.13;100764.88;5040100;28;20003;-90
2023/08/31 11:27:22;;;;;;;;;;;;;;;28.23;53.12;100759.44;5060104;28;20313;-89
2023/08/31 11:29:47;;;;;;;;;;;;;;;28.23;52.67;100757.63;5079886;28;20073;-88
2023/08/31 11:32:13;;;;;;;;;;;;;;;28.24;53.06;100755.84;5079311;28;19917;-89
2023/08/31 11:34:44;;;;;;;;;;;;;;;28.26;53.01;100748.66;5074962;28;20431;-88
2023/08/31 11:37:15;;;;;;;;;;;;;;;28.27;52.68;100752.22;5047519;28;20392;-89
2023/08/31 11:39:42;;;;;;;;;;;;;;;28.26;52.98;100750.44;5072463;28;19950;-88
2023/08/31 11:42:07;;;;;;;;;;;;;;;28.27;53.09;100747.72;5037151;28;19917;-88
2023/08/31 11:44:33;;;;;;;;;;;;;;;28.28;53.12;100745.91;5064436;28;19923;-87
2023/08/31 11:46:58;;;;;;;;;;;;;;;28.27;53.12;100736.97;5051547;28;19925;-89
2023/08/31 11:49:23;;;;;;;;;;;;;;;28.26;53.58;100732.53;5059325;28;19939;-89
2023/08/31 11:51:51;;;;;;;;;;;;;;;28.26;53.14;100732.53;5071080;28;20212;-87
2023/08/31 11:54:17;;;;;;;;;;;;;;;28.30;53.09;100741.41;5046584;28;19952;-88
2023/08/31 11:56:48;;;;;;;;;;;;;;;28.30;53.24;100745.00;5064695;28;19951;-87
2023/08/31 11:59:18;;;;;;;;;;;;;;;28.30;53.70;100745.00;5055198;28;20378;-89
2023/08/31 12:01:46;;;;;;;;;;;;;;;28.28;53.38;100744.13;5047799;28;20374;-89
2023/08/31 12:04:15;;;;;;;;;;;;;;;28.31;53.97;100741.38;5032760;28;19917;-88
2023/08/31 12:06:41;;;;;;;;;;;;;;;28.31;53.55;100748.56;5063712;28;19943;-88
2023/08/31 12:09:08;;;;;;;;;;;;;;;28.29;53.69;100740.53;5052924;28;19913;-88
2023/08/31 12:11:34;;;;;;;;;;;;;;;28.33;53.33;100744.03;5048822;28;19939;-87
2023/08/31 12:14:00;;;;;;;;;;;;;;;28.33;53.03;100731.50;5049929;28;19912;-88
2023/08/31 12:16:41;;;;;;;;;;;;;;;28.36;53.20;100738.59;5060060;28;19925;-88
2023/08/31 12:19:09;;;;;;;;;;;;;;;28.35;52.79;100742.22;5054496;28;19913;-88
2023/08/31 12:21:34;;;;;;;;;;;;;;;28.33;53.57;100742.25;5044199;28;19930;-88
2023/08/31 12:24:00;;;;;;;;;;;;;;;28.36;53.23;100743.97;5040166;28;19912;-88
2023/08/31 12:26:26;;;;;;;;;;;;;;;28.36;53.23;100747.56;5053353;28;20213;-87
2023/08/31 12:28:52;;;;;;;;;;;;;;;28.35;53.41;100753.84;5058125;28;19979;-87
2023/08/31 12:31:18;;;;;;;;;;;;;;;28.35;53.04;100756.53;5040373;28;19913;-88
2023/08/31 12:33:43;;;;;;;;;;;;;;;28.34;53.38;100752.09;5034399;28;20050;-88
2023/08/31 12:36:10;;;;;;;;;;;;;;;28.36;53.51;100738.59;5051501;28;20382;-87
2023/08/31 12:38:36;;;;;;;;;;;;;;;28.35;53.01;100735.03;5067338;28;19920;-89